Kittanning, PA (16201)

1:17 AM EDT on October 23, 2014 (GMT -0400)
At Grace Baptist Church | Change Station
CLOSE
Current Station
Personal Weather Station
Location: Kittanning, PA
Elevation: 1084 ft
Nearby Weather Stations

Elev 1084 ft 40.82 °N, 79.54 °W | Updated 3 seconds ago

Overcast
Overcast
43.1 °F
Feels Like 43 °F
N
0.0
Wind Variable Wind from NNW
Gusts 6.0 mph

Today
High -- | Low -- °F
--% Chance of Precip.
Yesterday
High -- | Low -- °F
Precip. -- in
7:38 AM 6:25 PM
Waning Crescent, 1% visible
Pressure 30.16 in
Visibility 10.0 miles
Clouds Mostly Cloudy 2600 ft
Overcast 4300 ft
Windchill 43 °F
Dew Point 40 °F
Humidity 87%
Rainfall 0.00 in
Snow Depth Not available.
UV 0 out of 12
Pollen .30 out of 12
Ozone Good
PM2.5 Good
Flu Activity Sporadic
METAR KBTP 230455Z AUTO 28003KT 10SM BKN026 OVC043 06/03 A3016 RMK AO1

More Conditions Fewer Conditions

Pressure 30.16 in
Visibility 10.0 miles
Clouds Mostly Cloudy 2600 ft
Overcast 4300 ft
Windchill 43 °F
Dew Point 40 °F
Humidity 87%
Rainfall 0.00 in
Snow Depth Not available.
UV 0 out of 12
Pollen .30 out of 12
Ozone Good
PM2.5 Good
Flu Activity Sporadic
METAR KBTP 230455Z AUTO 28003KT 10SM BKN026 OVC043 06/03 A3016 RMK AO1

More Conditions Fewer Conditions

10-Day Weather Forecast

Almanac

Astronomy

Oct. 23, 2014 Rise Set
Actual Time 7:38 AM EDT 6:25 PM EDT
Civil Twilight 7:10 AM EDT 6:53 PM EDT
Nautical Twilight 6:38 AM EDT 7:25 PM EDT
Astronomical Twilight 6:06 AM EDT 7:57 PM EDT
Moon 7:16 AM EDT 6:26 PM EDT
Length of Visible Light 11h 43m
Length of Day
10h 47m
Tomorrow will be 2m 31s shorter.
Waning Crescent, 1% of the Moon is Illuminated
Today
Waning Crescent
Oct 23
New
Oct 30
First Quarter
Nov 6
Full
Nov 14
Last Quarter

Today's Extremes

State Highs State Lows

Community

WunderPhotos

Upload Photos

1,764,170 photos uploaded!

Nearby

Air Quality

  Air Quality AQ Index Pollutant
Yesterday Good
PM2.5
Yesterday Good
OZONE
Current Good
PM2.5
Current Good
OZONE
Wednesday Good
PM2.5
Thursday Good
PM2.5
Friday Good
PM2.5

Snow Depth

Station Depth Elevation
No new snow has been reported.

Earthquake Activity

City Distance Mag. Time & Date
No recent earthquake activity has been reported nearby.
Minimum magnitude displayed is 2.5.

Coastal Water Temperatures

Place Temperature
No Stations Reporting

Nearby Weather Stations